Time;durP1;ratioP1;P1;durP2;ratioP2;P2;SDS_P1;SDS_P2;PMS_P1;PMS_P2;Temp;Humidity;BMP_temperature;BMP_pressure;BME280_temperature;BME280_humidity;BME280_pressure;Samples;Min_cycle;Max_cycle;Signal;HPM_P1;HPM_P2
2023/08/24 00:01:14;;;;;;;9.88;5.38;;;;;;;;;;5003489;28;91837;-59
2023/08/24 00:03:40;;;;;;;11.63;5.07;;;;;;;;;;5011140;28;89207;-59
2023/08/24 00:06:06;;;;;;;14.32;5.40;;;;;;;;;;4999082;28;88789;-59
2023/08/24 00:08:33;;;;;;;10.63;5.15;;;;;;;;;;5000426;28;89336;-60
2023/08/24 00:11:00;;;;;;;11.30;4.57;;;;;;;;;;5005366;28;89017;-60
2023/08/24 00:13:26;;;;;;;8.43;5.15;;;;;;;;;;4999453;28;88041;-60
2023/08/24 00:15:53;;;;;;;8.48;4.75;;;;;;;;;;4998556;28;88792;-64
2023/08/24 00:18:21;;;;;;;8.32;4.53;;;;;;;;;;5003254;28;90195;-60
2023/08/24 00:20:48;;;;;;;8.73;4.90;;;;;;;;;;5003009;28;88936;-60
2023/08/24 00:23:15;;;;;;;6.05;4.72;;;;;;;;;;5001465;28;88562;-60
2023/08/24 00:25:41;;;;;;;5.78;4.68;;;;;;;;;;5002658;28;88230;-60
2023/08/24 00:28:07;;;;;;;10.00;5.32;;;;;;;;;;5008623;28;89110;-60
2023/08/24 00:30:34;;;;;;;8.57;4.68;;;;;;;;;;4996530;28;88993;-60
2023/08/24 00:33:00;;;;;;;8.40;4.82;;;;;;;;;;4996426;28;88772;-60
2023/08/24 00:35:27;;;;;;;12.18;5.38;;;;;;;;;;4999259;28;89348;-61
2023/08/24 00:37:53;;;;;;;10.13;5.80;;;;;;;;;;5002115;28;92450;-60
2023/08/24 00:40:20;;;;;;;11.00;5.45;;;;;;;;;;5002893;28;88052;-59
2023/08/24 00:42:46;;;;;;;9.50;5.18;;;;;;;;;;5001191;28;88034;-60
2023/08/24 00:45:13;;;;;;;7.30;4.55;;;;;;;;;;4998768;28;89081;-59
2023/08/24 00:47:44;;;;;;;12.30;5.10;;;;;;;;;;5004306;28;88112;-59
2023/08/24 00:50:11;;;;;;;8.45;5.03;;;;;;;;;;4998594;28;87263;-60
2023/08/24 00:52:39;;;;;;;8.63;5.05;;;;;;;;;;4998530;28;88007;-59
2023/08/24 00:55:06;;;;;;;7.55;5.25;;;;;;;;;;4997161;28;89759;-59
2023/08/24 00:57:32;;;;;;;16.83;6.13;;;;;;;;;;4995708;28;89732;-60
2023/08/24 01:00:00;;;;;;;12.38;5.07;;;;;;;;;;5000519;28;88538;-64
2023/08/24 01:02:27;;;;;;;13.60;5.68;;;;;;;;;;5000806;28;87884;-60
2023/08/24 01:04:53;;;;;;;19.08;6.30;;;;;;;;;;4997086;28;89370;-60
2023/08/24 01:07:20;;;;;;;7.28;5.63;;;;;;;;;;5009008;28;90358;-60
2023/08/24 01:09:47;;;;;;;6.70;5.50;;;;;;;;;;5000759;28;89981;-59
2023/08/24 01:12:24;;;;;;;8.20;5.70;;;;;;;;;;4997373;28;88087;-58
2023/08/24 01:14:53;;;;;;;6.35;5.50;;;;;;;;;;4998657;28;90220;-60
2023/08/24 01:17:22;;;;;;;9.30;5.35;;;;;;;;;;5007020;28;88989;-60
2023/08/24 01:19:49;;;;;;;7.20;5.55;;;;;;;;;;4998301;28;88439;-59
2023/08/24 01:22:27;;;;;;;12.27;5.10;;;;;;;;;;4999820;28;90172;-60
2023/08/24 01:25:00;;;;;;;6.97;5.25;;;;;;;;;;4998883;28;88188;-59
2023/08/24 01:27:27;;;;;;;10.60;5.07;;;;;;;;;;5000275;28;92242;-61
2023/08/24 01:29:56;;;;;;;11.07;5.47;;;;;;;;;;5002443;28;89652;-60
2023/08/24 01:32:23;;;;;;;11.48;5.45;;;;;;;;;;4998167;28;88244;-60
2023/08/24 01:34:49;;;;;;;9.93;5.25;;;;;;;;;;4996307;28;88875;-60
2023/08/24 01:37:16;;;;;;;7.38;5.15;;;;;;;;;;4997541;28;89957;-60
2023/08/24 01:39:46;;;;;;;16.08;6.22;;;;;;;;;;4999230;28;87753;-60
2023/08/24 01:42:18;;;;;;;12.60;6.32;;;;;;;;;;4997423;27;88334;-60
2023/08/24 01:44:47;;;;;;;12.43;5.53;;;;;;;;;;5003936;28;89465;-59
2023/08/24 01:47:13;;;;;;;9.18;5.25;;;;;;;;;;5002093;28;89356;-60
2023/08/24 01:49:40;;;;;;;11.30;5.05;;;;;;;;;;5009259;28;89506;-60
2023/08/24 01:52:08;;;;;;;11.27;6.10;;;;;;;;;;4999480;28;88933;-60
2023/08/24 01:54:34;;;;;;;10.00;6.47;;;;;;;;;;4997548;28;88755;-60
2023/08/24 01:57:01;;;;;;;10.05;6.00;;;;;;;;;;4995631;28;89100;-59
2023/08/24 01:59:27;;;;;;;8.68;5.45;;;;;;;;;;4998817;28;88000;-59
2023/08/24 02:01:54;;;;;;;10.20;5.50;;;;;;;;;;4999071;28;89730;-59
2023/08/24 02:04:20;;;;;;;9.48;5.88;;;;;;;;;;4999304;28;89311;-59
2023/08/24 02:06:46;;;;;;;7.65;5.35;;;;;;;;;;4998092;28;88168;-60
2023/08/24 02:09:13;;;;;;;15.63;6.32;;;;;;;;;;5007364;28;89847;-59
2023/08/24 02:11:39;;;;;;;7.38;6.22;;;;;;;;;;4996742;28;90079;-61
2023/08/24 02:14:05;;;;;;;8.98;6.13;;;;;;;;;;5006995;28;89218;-59
2023/08/24 02:16:33;;;;;;;14.05;6.50;;;;;;;;;;5000940;28;89914;-59
2023/08/24 02:18:59;;;;;;;12.13;7.00;;;;;;;;;;5004909;28;90902;-59
2023/08/24 02:21:26;;;;;;;12.23;6.88;;;;;;;;;;4998801;28;88642;-59
2023/08/24 02:23:52;;;;;;;14.60;6.55;;;;;;;;;;4996203;28;89938;-59
2023/08/24 02:26:20;;;;;;;15.10;6.78;;;;;;;;;;5002400;28;88543;-59
2023/08/24 02:28:46;;;;;;;10.07;6.32;;;;;;;;;;5003999;28;88622;-59
2023/08/24 02:31:13;;;;;;;14.05;6.60;;;;;;;;;;4995413;28;88997;-59
2023/08/24 02:33:39;;;;;;;18.52;7.47;;;;;;;;;;4998214;28;88444;-59
2023/08/24 02:36:06;;;;;;;9.68;6.35;;;;;;;;;;5000114;28;88874;-59
2023/08/24 02:38:32;;;;;;;12.88;6.72;;;;;;;;;;4998298;28;88163;-61
2023/08/24 02:41:02;;;;;;;10.95;7.03;;;;;;;;;;4994820;28;89244;-59
2023/08/24 02:43:29;;;;;;;10.55;6.75;;;;;;;;;;4994447;28;90003;-59
2023/08/24 02:45:59;;;;;;;11.27;6.88;;;;;;;;;;4997941;28;87963;-59
2023/08/24 02:48:26;;;;;;;13.43;6.60;;;;;;;;;;4994658;28;89915;-59
2023/08/24 02:50:52;;;;;;;24.70;7.50;;;;;;;;;;4995141;28;88967;-58
2023/08/24 02:53:19;;;;;;;11.60;7.05;;;;;;;;;;4998212;28;88211;-59
2023/08/24 02:55:45;;;;;;;21.83;8.38;;;;;;;;;;4994818;28;88258;-59
2023/08/24 02:58:11;;;;;;;20.30;8.18;;;;;;;;;;4999162;28;87948;-61
2023/08/24 03:00:38;;;;;;;12.32;7.90;;;;;;;;;;5005529;28;89025;-61
2023/08/24 03:03:05;;;;;;;15.23;7.75;;;;;;;;;;5000025;28;88934;-62
2023/08/24 03:05:32;;;;;;;22.75;9.32;;;;;;;;;;5001242;28;88272;-61
2023/08/24 03:07:59;;;;;;;18.98;8.45;;;;;;;;;;5000496;28;88846;-60
2023/08/24 03:10:25;;;;;;;13.88;7.97;;;;;;;;;;5003244;28;88836;-61
2023/08/24 03:12:51;;;;;;;12.65;8.00;;;;;;;;;;5000169;28;88398;-61
2023/08/24 03:15:18;;;;;;;17.20;9.02;;;;;;;;;;5002911;28;88782;-63
2023/08/24 03:17:44;;;;;;;19.55;8.20;;;;;;;;;;5004329;28;88208;-63
2023/08/24 03:20:11;;;;;;;16.20;8.50;;;;;;;;;;5000751;28;88363;-65
2023/08/24 03:22:37;;;;;;;20.58;8.50;;;;;;;;;;5000031;28;89020;-67
2023/08/24 03:25:04;;;;;;;13.43;7.82;;;;;;;;;;5002283;28;90426;-61
2023/08/24 03:27:30;;;;;;;13.60;8.30;;;;;;;;;;4996966;28;92009;-61
2023/08/24 03:29:57;;;;;;;14.98;8.20;;;;;;;;;;4998630;28;89902;-62
2023/08/24 03:32:24;;;;;;;11.48;8.63;;;;;;;;;;5002204;28;89400;-60
2023/08/24 03:34:50;;;;;;;15.23;8.68;;;;;;;;;;5000723;28;88780;-62
2023/08/24 03:37:16;;;;;;;14.35;9.05;;;;;;;;;;5002188;28;89528;-61
2023/08/24 03:39:43;;;;;;;15.00;8.57;;;;;;;;;;4999699;28;88067;-61
2023/08/24 03:42:09;;;;;;;13.65;8.90;;;;;;;;;;5002722;28;88665;-61
2023/08/24 03:44:36;;;;;;;15.18;9.45;;;;;;;;;;5000866;28;88373;-62
2023/08/24 03:47:02;;;;;;;15.80;8.73;;;;;;;;;;5001006;28;90033;-61
2023/08/24 03:49:29;;;;;;;19.40;8.80;;;;;;;;;;4997288;28;88858;-62
2023/08/24 03:51:55;;;;;;;13.27;8.63;;;;;;;;;;4999566;28;90344;-62
2023/08/24 03:54:23;;;;;;;17.92;9.52;;;;;;;;;;4999962;28;88763;-62
2023/08/24 03:56:49;;;;;;;12.73;9.23;;;;;;;;;;4998315;28;89038;-63
2023/08/24 03:59:15;;;;;;;14.40;9.32;;;;;;;;;;4997670;28;88028;-62
2023/08/24 04:01:42;;;;;;;17.05;10.02;;;;;;;;;;5005824;28;88693;-64
2023/08/24 04:04:08;;;;;;;17.33;10.18;;;;;;;;;;5005611;28;89034;-63
2023/08/24 04:06:35;;;;;;;19.42;9.55;;;;;;;;;;5003602;28;89436;-62
2023/08/24 04:09:02;;;;;;;20.67;9.35;;;;;;;;;;5000260;28;88793;-60
2023/08/24 04:11:29;;;;;;;14.07;9.02;;;;;;;;;;5001274;28;89387;-60
2023/08/24 04:13:55;;;;;;;14.25;8.77;;;;;;;;;;4999721;28;88790;-60
2023/08/24 04:16:21;;;;;;;23.20;8.65;;;;;;;;;;5004909;28;90439;-60
2023/08/24 04:18:48;;;;;;;14.48;8.73;;;;;;;;;;5007222;28;87994;-58
2023/08/24 04:21:14;;;;;;;20.75;9.95;;;;;;;;;;5002788;28;88842;-58
2023/08/24 04:23:44;;;;;;;15.23;9.43;;;;;;;;;;4999350;28;88098;-60
2023/08/24 04:26:11;;;;;;;16.02;9.82;;;;;;;;;;4999265;28;89882;-59
2023/08/24 04:28:38;;;;;;;15.48;10.35;;;;;;;;;;5005884;28;88976;-58
2023/08/24 04:31:04;;;;;;;17.88;9.43;;;;;;;;;;4999033;28;89210;-60
2023/08/24 04:33:31;;;;;;;11.95;8.65;;;;;;;;;;4997957;28;88218;-59
2023/08/24 04:35:58;;;;;;;17.30;9.05;;;;;;;;;;5001111;28;89305;-59
2023/08/24 04:38:24;;;;;;;13.05;8.60;;;;;;;;;;4997599;28;89157;-59
2023/08/24 04:40:52;;;;;;;14.80;8.68;;;;;;;;;;5004088;28;88189;-60
2023/08/24 04:43:19;;;;;;;18.45;9.10;;;;;;;;;;5001216;28;89153;-59
2023/08/24 04:45:46;;;;;;;21.90;9.48;;;;;;;;;;5002191;28;88195;-60
2023/08/24 04:48:12;;;;;;;21.02;8.82;;;;;;;;;;4997564;28;90547;-60
2023/08/24 04:50:39;;;;;;;14.13;9.38;;;;;;;;;;5000735;28;88706;-60
2023/08/24 04:53:05;;;;;;;14.95;9.07;;;;;;;;;;5003397;28;88769;-60
2023/08/24 04:55:32;;;;;;;12.75;8.80;;;;;;;;;;4998576;28;88270;-60
2023/08/24 04:57:58;;;;;;;14.98;9.18;;;;;;;;;;4996136;28;88193;-59
2023/08/24 05:00:24;;;;;;;12.88;9.68;;;;;;;;;;5002668;28;88037;-60
2023/08/24 05:02:51;;;;;;;20.40;10.30;;;;;;;;;;5000487;28;90856;-59
2023/08/24 05:05:18;;;;;;;19.13;10.70;;;;;;;;;;5001128;28;90065;-60
2023/08/24 05:07:44;;;;;;;20.42;9.55;;;;;;;;;;5003102;28;89524;-59
2023/08/24 05:10:11;;;;;;;12.90;10.20;;;;;;;;;;5002965;28;89962;-60
2023/08/24 05:12:37;;;;;;;12.25;8.98;;;;;;;;;;4995381;28;90901;-60
2023/08/24 05:15:04;;;;;;;14.10;9.18;;;;;;;;;;5001818;28;89575;-59
2023/08/24 05:17:31;;;;;;;17.80;9.27;;;;;;;;;;4999012;28;88037;-59
2023/08/24 05:19:58;;;;;;;11.85;9.02;;;;;;;;;;5005881;28;89287;-59
2023/08/24 05:22:25;;;;;;;18.55;9.73;;;;;;;;;;5001570;28;90022;-59
2023/08/24 05:24:51;;;;;;;23.05;10.38;;;;;;;;;;5002001;28;88462;-61
2023/08/24 05:27:17;;;;;;;17.33;9.75;;;;;;;;;;4999349;28;89870;-60
2023/08/24 05:29:44;;;;;;;15.07;9.40;;;;;;;;;;4997164;28;90384;-58
2023/08/24 05:32:10;;;;;;;21.65;10.27;;;;;;;;;;5000836;28;88873;-59
2023/08/24 05:34:36;;;;;;;13.35;10.05;;;;;;;;;;5005485;28;90325;-60
2023/08/24 05:37:03;;;;;;;16.50;10.60;;;;;;;;;;4997374;28;91060;-59
2023/08/24 05:39:29;;;;;;;22.35;10.25;;;;;;;;;;4997654;28;89521;-59
2023/08/24 05:41:56;;;;;;;19.75;9.25;;;;;;;;;;4997744;28;89111;-60
2023/08/24 05:44:22;;;;;;;16.33;10.32;;;;;;;;;;4997960;28;91115;-60
2023/08/24 05:46:48;;;;;;;19.30;9.93;;;;;;;;;;5003399;28;89895;-59
2023/08/24 05:49:15;;;;;;;23.58;10.38;;;;;;;;;;4996662;28;88865;-59
2023/08/24 05:51:41;;;;;;;20.23;10.15;;;;;;;;;;4999446;28;91446;-60
2023/08/24 05:54:08;;;;;;;19.75;10.02;;;;;;;;;;4994838;28;89174;-60
2023/08/24 05:56:34;;;;;;;21.08;9.63;;;;;;;;;;4994352;28;89770;-58
2023/08/24 05:59:01;;;;;;;23.63;9.68;;;;;;;;;;5000473;28;89805;-58
2023/08/24 06:01:30;;;;;;;27.35;9.80;;;;;;;;;;5002585;28;88926;-59
2023/08/24 06:03:56;;;;;;;20.85;10.10;;;;;;;;;;5000506;28;88679;-59
2023/08/24 06:06:23;;;;;;;19.38;10.18;;;;;;;;;;4995799;28;89657;-60
2023/08/24 06:08:49;;;;;;;17.52;10.15;;;;;;;;;;5001447;28;89153;-60
2023/08/24 06:11:16;;;;;;;19.00;9.75;;;;;;;;;;4996269;28;90042;-58
2023/08/24 06:13:42;;;;;;;16.75;9.73;;;;;;;;;;4998770;28;90315;-60
2023/08/24 06:16:08;;;;;;;12.43;8.75;;;;;;;;;;4999275;28;88820;-59
2023/08/24 06:18:35;;;;;;;23.52;9.63;;;;;;;;;;5000345;28;89805;-59
2023/08/24 06:21:01;;;;;;;20.23;9.02;;;;;;;;;;5001213;28;90456;-59
2023/08/24 06:23:27;;;;;;;27.35;10.05;;;;;;;;;;5000637;28;88271;-59
2023/08/24 06:25:54;;;;;;;23.52;9.93;;;;;;;;;;4998934;28;89570;-59
2023/08/24 06:28:20;;;;;;;19.90;9.55;;;;;;;;;;4997338;28;89070;-59
2023/08/24 06:30:47;;;;;;;18.02;9.50;;;;;;;;;;4997726;28;88197;-60
2023/08/24 06:33:16;;;;;;;22.02;10.02;;;;;;;;;;4998355;28;88683;-59
2023/08/24 06:35:42;;;;;;;24.65;9.82;;;;;;;;;;4998219;28;89257;-59
2023/08/24 06:38:09;;;;;;;20.42;10.05;;;;;;;;;;4994971;28;88838;-59
2023/08/24 06:40:35;;;;;;;19.95;10.27;;;;;;;;;;4997542;28;89703;-60
2023/08/24 06:43:02;;;;;;;17.27;9.98;;;;;;;;;;4992682;28;90054;-59
2023/08/24 06:45:28;;;;;;;19.50;9.98;;;;;;;;;;4993394;28;89602;-59
2023/08/24 06:47:55;;;;;;;28.30;10.27;;;;;;;;;;4995568;28;88919;-67
2023/08/24 06:50:21;;;;;;;20.50;10.23;;;;;;;;;;5000736;28;89841;-60
2023/08/24 06:52:48;;;;;;;15.02;10.10;;;;;;;;;;4993691;28;90043;-60
2023/08/24 06:55:14;;;;;;;17.50;10.77;;;;;;;;;;4996511;28;89001;-60
2023/08/24 06:57:40;;;;;;;16.00;10.35;;;;;;;;;;4994972;28;90613;-59
2023/08/24 07:00:08;;;;;;;17.55;10.20;;;;;;;;;;4994676;28;88931;-60
2023/08/24 07:02:36;;;;;;;15.48;10.65;;;;;;;;;;4997352;28;89991;-66
2023/08/24 07:05:04;;;;;;;18.13;10.65;;;;;;;;;;4997821;28;89623;-65
2023/08/24 07:07:31;;;;;;;15.55;10.90;;;;;;;;;;4993554;28;90117;-65
2023/08/24 07:09:57;;;;;;;16.95;10.43;;;;;;;;;;5000714;28;90044;-67
2023/08/24 07:12:24;;;;;;;29.08;11.25;;;;;;;;;;4994011;28;89462;-65
2023/08/24 07:14:50;;;;;;;20.13;10.77;;;;;;;;;;4997541;28;90367;-64
2023/08/24 07:17:16;;;;;;;19.73;11.10;;;;;;;;;;4999354;28;89113;-65
2023/08/24 07:19:43;;;;;;;19.90;10.68;;;;;;;;;;4996442;28;89099;-65
2023/08/24 07:22:09;;;;;;;23.67;11.20;;;;;;;;;;4993963;28;90123;-65
2023/08/24 07:24:36;;;;;;;17.70;10.70;;;;;;;;;;4996184;28;90605;-65
2023/08/24 07:27:11;;;;;;;19.60;11.10;;;;;;;;;;4993576;28;89095;-64
2023/08/24 07:29:37;;;;;;;20.67;11.05;;;;;;;;;;4992823;28;89003;-64
2023/08/24 07:32:04;;;;;;;22.58;11.07;;;;;;;;;;5001986;28;89608;-68
2023/08/24 07:34:30;;;;;;;15.60;10.45;;;;;;;;;;4997981;28;89346;-67
2023/08/24 07:36:57;;;;;;;19.73;10.98;;;;;;;;;;4997955;28;91158;-65
2023/08/24 07:39:23;;;;;;;18.38;11.48;;;;;;;;;;4992477;28;89094;-68
2023/08/24 07:41:49;;;;;;;18.83;10.30;;;;;;;;;;4993417;28;88898;-66
2023/08/24 07:44:16;;;;;;;16.70;10.38;;;;;;;;;;4994969;28;90607;-64
2023/08/24 07:46:42;;;;;;;17.08;10.30;;;;;;;;;;4998054;28;89394;-64
2023/08/24 07:49:09;;;;;;;20.88;11.90;;;;;;;;;;4996535;28;91058;-64
2023/08/24 07:51:35;;;;;;;19.40;11.30;;;;;;;;;;5000205;28;89624;-64
2023/08/24 07:54:04;;;;;;;19.13;11.23;;;;;;;;;;4999721;28;90533;-64
2023/08/24 07:56:30;;;;;;;18.95;10.68;;;;;;;;;;5000195;28;90152;-63
2023/08/24 07:58:56;;;;;;;19.17;11.02;;;;;;;;;;5000733;28;89576;-63
2023/08/24 08:01:23;;;;;;;20.48;11.23;;;;;;;;;;4996061;28;90340;-63
2023/08/24 08:03:49;;;;;;;25.17;11.02;;;;;;;;;;4995787;28;90180;-64
2023/08/24 08:06:16;;;;;;;20.75;9.35;;;;;;;;;;4995075;28;90444;-64
2023/08/24 08:08:44;;;;;;;18.83;9.98;;;;;;;;;;5001985;28;90999;-64
2023/08/24 08:11:10;;;;;;;13.82;10.10;;;;;;;;;;4996374;28;89515;-63
2023/08/24 08:13:37;;;;;;;17.02;9.82;;;;;;;;;;4995796;28;89161;-65
2023/08/24 08:16:03;;;;;;;13.25;10.32;;;;;;;;;;5003142;28;91236;-64
2023/08/24 08:18:31;;;;;;;15.10;10.05;;;;;;;;;;4997537;28;89473;-63
2023/08/24 08:20:57;;;;;;;17.77;9.38;;;;;;;;;;5009959;28;91031;-63
2023/08/24 08:23:24;;;;;;;17.38;9.35;;;;;;;;;;5000726;28;89852;-63
2023/08/24 08:25:50;;;;;;;19.88;8.93;;;;;;;;;;5007528;28;90180;-63
2023/08/24 08:28:20;;;;;;;19.15;9.48;;;;;;;;;;5000669;28;90246;-65
2023/08/24 08:30:48;;;;;;;18.45;9.43;;;;;;;;;;4997135;28;89701;-67
2023/08/24 08:33:14;;;;;;;19.60;9.25;;;;;;;;;;4997206;28;90112;-66
2023/08/24 08:35:41;;;;;;;15.45;9.02;;;;;;;;;;5004146;27;87829;-66
2023/08/24 08:38:07;;;;;;;19.55;9.48;;;;;;;;;;5001802;28;89818;-66
2023/08/24 08:40:36;;;;;;;16.48;8.27;;;;;;;;;;5005101;28;89041;-64
2023/08/24 08:43:03;;;;;;;16.30;8.02;;;;;;;;;;5005283;28;89435;-66
2023/08/24 08:45:29;;;;;;;13.52;8.25;;;;;;;;;;5001614;28;89122;-66
2023/08/24 08:47:57;;;;;;;24.02;10.18;;;;;;;;;;5002417;28;88825;-66
2023/08/24 08:50:24;;;;;;;15.73;8.80;;;;;;;;;;5003183;28;89605;-65
2023/08/24 08:52:51;;;;;;;22.23;8.85;;;;;;;;;;4997341;28;88157;-65
2023/08/24 08:55:18;;;;;;;16.00;8.32;;;;;;;;;;5009047;28;88310;-64
2023/08/24 08:57:48;;;;;;;13.52;7.80;;;;;;;;;;4996471;28;88820;-67
2023/08/24 09:00:16;;;;;;;20.17;7.85;;;;;;;;;;5000201;28;89596;-66
2023/08/24 09:02:45;;;;;;;17.38;7.93;;;;;;;;;;5006696;28;88814;-65
2023/08/24 09:05:12;;;;;;;16.98;7.97;;;;;;;;;;5005585;28;90473;-65
2023/08/24 09:07:41;;;;;;;17.90;7.40;;;;;;;;;;4994993;28;89717;-65
2023/08/24 09:10:08;;;;;;;17.95;8.85;;;;;;;;;;5007212;28;89297;-65
2023/08/24 09:12:35;;;;;;;15.73;8.90;;;;;;;;;;5005940;28;88911;-65
2023/08/24 09:15:06;;;;;;;14.82;7.88;;;;;;;;;;5001075;28;88164;-65
2023/08/24 09:17:33;;;;;;;11.63;7.97;;;;;;;;;;4997556;28;88677;-64
2023/08/24 09:20:00;;;;;;;12.25;8.30;;;;;;;;;;4996904;28;89171;-65
2023/08/24 09:22:26;;;;;;;12.98;7.97;;;;;;;;;;4996433;28;88140;-64
2023/08/24 09:24:54;;;;;;;12.63;6.22;;;;;;;;;;4999898;28;88781;-63
2023/08/24 09:27:21;;;;;;;13.88;7.45;;;;;;;;;;5000296;28;88136;-64
2023/08/24 09:29:51;;;;;;;13.73;8.32;;;;;;;;;;4996761;28;88805;-64
2023/08/24 09:32:22;;;;;;;15.23;7.80;;;;;;;;;;4996041;28;90264;-63
2023/08/24 09:34:48;;;;;;;15.57;8.43;;;;;;;;;;5001092;28;88401;-64
2023/08/24 09:37:15;;;;;;;16.90;8.23;;;;;;;;;;4996071;27;88845;-63
2023/08/24 09:39:42;;;;;;;15.60;8.18;;;;;;;;;;4999255;28;88081;-63
2023/08/24 09:42:08;;;;;;;13.75;8.38;;;;;;;;;;4996059;28;88938;-64
2023/08/24 09:44:35;;;;;;;21.02;7.80;;;;;;;;;;4998882;28;89855;-63
2023/08/24 09:47:01;;;;;;;20.30;9.07;;;;;;;;;;5001235;28;89180;-66
2023/08/24 09:49:28;;;;;;;15.10;8.75;;;;;;;;;;5006079;28;89714;-65
2023/08/24 09:51:56;;;;;;;27.42;8.05;;;;;;;;;;4996029;28;90042;-63
2023/08/24 09:54:26;;;;;;;18.90;8.23;;;;;;;;;;4996451;28;88098;-65
2023/08/24 09:56:54;;;;;;;18.67;8.65;;;;;;;;;;5004761;28;90450;-64
2023/08/24 09:59:24;;;;;;;23.10;8.88;;;;;;;;;;5002094;28;89964;-67
2023/08/24 10:01:51;;;;;;;16.90;7.78;;;;;;;;;;5000900;28;88011;-67
2023/08/24 10:04:21;;;;;;;14.07;8.75;;;;;;;;;;5002730;28;90338;-67
2023/08/24 10:06:51;;;;;;;10.57;8.40;;;;;;;;;;5006400;28;89270;-67
2023/08/24 10:09:31;;;;;;;12.85;7.93;;;;;;;;;;5003872;28;88663;-68
2023/08/24 10:11:58;;;;;;;16.00;8.27;;;;;;;;;;5004173;28;88889;-67
2023/08/24 10:14:25;;;;;;;13.60;8.73;;;;;;;;;;4995875;28;87874;-67
2023/08/24 10:16:52;;;;;;;18.98;8.95;;;;;;;;;;4999136;28;88289;-67
2023/08/24 10:19:19;;;;;;;17.45;9.75;;;;;;;;;;4998666;28;90499;-66
2023/08/24 10:21:46;;;;;;;22.10;10.52;;;;;;;;;;5000486;28;90573;-67
2023/08/24 10:24:14;;;;;;;17.52;10.15;;;;;;;;;;4995269;28;89925;-66
2023/08/24 10:26:41;;;;;;;18.98;9.48;;;;;;;;;;4993363;28;90074;-67
2023/08/24 10:29:07;;;;;;;19.88;10.35;;;;;;;;;;4999877;28;90041;-66
2023/08/24 10:31:34;;;;;;;17.83;10.27;;;;;;;;;;5007588;28;90652;-68
2023/08/24 10:34:01;;;;;;;23.52;10.80;;;;;;;;;;5000012;28;93627;-69
2023/08/24 10:36:28;;;;;;;24.27;11.50;;;;;;;;;;4999041;28;89862;-69
2023/08/24 10:38:56;;;;;;;29.60;11.77;;;;;;;;;;4999293;28;89528;-69
2023/08/24 10:41:26;;;;;;;22.38;11.18;;;;;;;;;;4997201;28;90443;-69
2023/08/24 10:43:53;;;;;;;25.38;10.55;;;;;;;;;;4998714;28;89420;-69
2023/08/24 10:46:19;;;;;;;16.52;11.23;;;;;;;;;;5000353;28;89697;-69
2023/08/24 10:48:49;;;;;;;20.88;11.00;;;;;;;;;;4994760;28;90010;-69
2023/08/24 10:51:28;;;;;;;23.75;10.68;;;;;;;;;;5001153;28;90492;-69
2023/08/24 10:53:55;;;;;;;23.17;10.95;;;;;;;;;;4998294;28;90116;-69
2023/08/24 10:56:29;;;;;;;22.23;10.55;;;;;;;;;;4994491;28;90090;-69
2023/08/24 10:59:10;;;;;;;16.73;10.15;;;;;;;;;;5000682;28;89236;-69
2023/08/24 11:01:41;;;;;;;18.80;10.50;;;;;;;;;;4999159;28;91181;-69
2023/08/24 11:04:10;;;;;;;13.82;9.73;;;;;;;;;;5000342;28;90664;-69
2023/08/24 11:06:53;;;;;;;21.50;10.02;;;;;;;;;;4995771;28;88177;-69
2023/08/24 11:09:20;;;;;;;25.45;10.93;;;;;;;;;;4995181;28;89092;-68
2023/08/24 11:11:57;;;;;;;19.80;10.63;;;;;;;;;;4997313;28;90620;-70
2023/08/24 11:14:26;;;;;;;20.17;10.48;;;;;;;;;;4994276;28;89360;-71
2023/08/24 11:16:53;;;;;;;22.27;10.43;;;;;;;;;;5001167;28;91229;-70
2023/08/24 11:19:20;;;;;;;28.08;10.48;;;;;;;;;;5001145;28;90253;-71
2023/08/24 11:21:46;;;;;;;14.82;10.23;;;;;;;;;;4997148;28;90022;-70
2023/08/24 11:24:13;;;;;;;19.83;10.73;;;;;;;;;;5004853;28;89609;-69
2023/08/24 11:26:41;;;;;;;20.20;10.95;;;;;;;;;;5005673;28;89128;-70
2023/08/24 11:29:08;;;;;;;21.58;10.75;;;;;;;;;;5001690;28;90374;-70
2023/08/24 11:31:35;;;;;;;14.95;9.88;;;;;;;;;;4996666;28;89166;-70
2023/08/24 11:34:02;;;;;;;19.77;11.57;;;;;;;;;;5001866;28;89517;-70
2023/08/24 11:36:29;;;;;;;20.42;12.15;;;;;;;;;;5000443;28;90805;-70
2023/08/24 11:38:59;;;;;;;22.10;11.48;;;;;;;;;;4998300;28;90085;-68
2023/08/24 11:41:25;;;;;;;;;;;;;;;;;;4997486;28;90038;-68
2023/08/24 11:44:00;;;;;;;22.38;12.27;;;;;;;;;;5002095;28;117728;-71
2023/08/24 11:46:37;;;;;;;19.65;11.85;;;;;;;;;;5001625;28;89418;-70
2023/08/24 11:49:06;;;;;;;23.77;11.57;;;;;;;;;;5000355;28;91081;-70
2023/08/24 11:51:34;;;;;;;20.20;12.10;;;;;;;;;;5000142;28;90507;-68
2023/08/24 11:54:09;;;;;;;22.58;11.82;;;;;;;;;;4996377;28;89005;-68
2023/08/24 11:56:42;;;;;;;23.88;12.63;;;;;;;;;;5002788;28;89449;-68
2023/08/24 11:59:12;;;;;;;21.58;12.60;;;;;;;;;;5005466;28;89719;-69
2023/08/24 12:01:39;;;;;;;21.73;12.55;;;;;;;;;;5002285;28;92383;-70
2023/08/24 12:04:05;;;;;;;21.92;11.30;;;;;;;;;;5003849;28;89512;-69
2023/08/24 12:06:32;;;;;;;24.40;12.60;;;;;;;;;;5011763;28;89397;-69
2023/08/24 12:08:58;;;;;;;20.13;12.18;;;;;;;;;;5011476;28;90037;-69
2023/08/24 12:11:26;;;;;;;23.33;12.23;;;;;;;;;;5001142;28;89891;-68
2023/08/24 12:13:53;;;;;;;18.75;11.23;;;;;;;;;;4996452;28;89976;-68
2023/08/24 12:16:20;;;;;;;23.80;12.48;;;;;;;;;;4999554;28;90750;-68
2023/08/24 12:18:48;;;;;;;19.27;12.05;;;;;;;;;;4997624;28;89544;-70
2023/08/24 12:21:14;;;;;;;31.63;11.73;;;;;;;;;;5003959;28;89294;-68
2023/08/24 12:23:41;;;;;;;22.95;12.10;;;;;;;;;;4997019;28;93450;-68
2023/08/24 12:26:08;;;;;;;20.60;12.48;;;;;;;;;;4997512;28;90058;-68
2023/08/24 12:28:35;;;;;;;23.95;11.55;;;;;;;;;;4996660;28;90086;-68
2023/08/24 12:31:03;;;;;;;19.67;12.15;;;;;;;;;;4997237;28;89549;-68
2023/08/24 12:33:31;;;;;;;20.77;13.05;;;;;;;;;;4995830;28;89165;-69
2023/08/24 12:35:58;;;;;;;21.15;11.90;;;;;;;;;;4998380;28;91140;-68
2023/08/24 12:38:25;;;;;;;28.90;12.77;;;;;;;;;;4998613;28;91796;-67
2023/08/24 12:40:52;;;;;;;23.05;13.43;;;;;;;;;;4996298;28;90095;-67
2023/08/24 12:43:19;;;;;;;20.27;12.93;;;;;;;;;;5005139;28;90059;-68
2023/08/24 12:45:45;;;;;;;23.63;12.85;;;;;;;;;;4996740;28;89245;-66
2023/08/24 12:48:12;;;;;;;20.35;12.27;;;;;;;;;;5004582;28;89414;-66
2023/08/24 12:50:38;;;;;;;21.67;12.23;;;;;;;;;;4997772;28;91134;-67
2023/08/24 12:53:06;;;;;;;25.10;12.77;;;;;;;;;;4996487;28;89299;-67
2023/08/24 12:55:33;;;;;;;25.13;12.48;;;;;;;;;;4995956;28;89909;-67
2023/08/24 12:57:59;;;;;;;22.95;11.95;;;;;;;;;;5000016;28;90111;-66
2023/08/24 13:00:27;;;;;;;21.80;11.35;;;;;;;;;;4998851;28;89990;-67
2023/08/24 13:02:55;;;;;;;16.70;10.95;;;;;;;;;;4996073;28;90299;-67
2023/08/24 13:05:22;;;;;;;22.85;11.27;;;;;;;;;;4999201;28;89307;-67
2023/08/24 13:07:49;;;;;;;20.85;10.07;;;;;;;;;;4999193;28;90070;-66
2023/08/24 13:10:16;;;;;;;21.35;11.13;;;;;;;;;;4999461;28;89573;-66
2023/08/24 13:12:42;;;;;;;18.05;8.70;;;;;;;;;;4998017;28;89566;-66
2023/08/24 13:15:09;;;;;;;17.05;9.50;;;;;;;;;;4995840;28;90184;-66
2023/08/24 13:17:36;;;;;;;28.80;9.18;;;;;;;;;;5001913;28;89516;-66
2023/08/24 13:20:03;;;;;;;17.65;8.93;;;;;;;;;;5001629;28;88700;-66
2023/08/24 13:22:29;;;;;;;15.40;9.80;;;;;;;;;;5000903;28;88019;-69
2023/08/24 13:24:56;;;;;;;23.33;8.43;;;;;;;;;;5002622;27;88914;-66
2023/08/24 13:27:23;;;;;;;12.27;8.18;;;;;;;;;;5002777;28;89344;-66
2023/08/24 13:29:49;;;;;;;18.17;8.68;;;;;;;;;;5001618;28;89064;-67
2023/08/24 13:32:16;;;;;;;14.52;7.38;;;;;;;;;;5004525;28;87423;-67
2023/08/24 13:34:43;;;;;;;15.93;7.75;;;;;;;;;;5004047;28;89592;-67
2023/08/24 13:37:09;;;;;;;20.38;9.10;;;;;;;;;;4996304;28;88704;-67
2023/08/24 13:39:35;;;;;;;21.40;10.02;;;;;;;;;;5004583;28;89450;-67
2023/08/24 13:42:02;;;;;;;24.13;9.23;;;;;;;;;;4995834;28;89136;-67
2023/08/24 13:44:28;;;;;;;14.80;8.75;;;;;;;;;;4996399;28;89016;-67
2023/08/24 13:46:55;;;;;;;15.50;7.90;;;;;;;;;;5007673;28;90040;-67
2023/08/24 13:49:21;;;;;;;17.25;9.27;;;;;;;;;;4999171;28;88796;-67
2023/08/24 13:52:06;;;;;;;19.85;11.07;;;;;;;;;;5001160;28;90004;-66
2023/08/24 13:54:32;;;;;;;23.30;11.75;;;;;;;;;;4999159;28;89064;-65
2023/08/24 13:57:00;;;;;;;22.17;10.93;;;;;;;;;;4999658;28;89489;-66
2023/08/24 13:59:27;;;;;;;23.58;11.43;;;;;;;;;;5000614;27;89114;-64
2023/08/24 14:01:53;;;;;;;22.75;11.63;;;;;;;;;;5008902;28;91421;-64
2023/08/24 14:04:19;;;;;;;19.52;11.82;;;;;;;;;;4995045;28;89699;-64
2023/08/24 14:06:48;;;;;;;24.35;13.65;;;;;;;;;;5002267;28;89181;-63
2023/08/24 14:09:14;;;;;;;23.80;12.80;;;;;;;;;;5001598;28;90146;-63
2023/08/24 14:11:41;;;;;;;21.98;12.90;;;;;;;;;;4996899;28;89027;-63
2023/08/24 14:14:07;;;;;;;26.17;14.35;;;;;;;;;;5004512;28;90252;-63
2023/08/24 14:16:34;;;;;;;24.33;13.95;;;;;;;;;;5000773;28;89555;-65
2023/08/24 14:19:00;;;;;;;25.27;14.48;;;;;;;;;;4994881;28;89670;-64
2023/08/24 14:21:30;;;;;;;24.85;14.88;;;;;;;;;;5002743;28;90439;-62
2023/08/24 14:24:10;;;;;;;29.90;15.43;;;;;;;;;;5000931;28;89697;-63
2023/08/24 14:26:39;;;;;;;20.70;15.55;;;;;;;;;;4999477;28;92571;-62